sensor_id;sensor_type;location;lat;lon;timestamp;temperature;humidity
5476;DHT22;2760;50.000;9.194;2023-05-10T00:00:55;16.40;99.90
5476;DHT22;2760;50.000;9.194;2023-05-10T00:03:22;16.20;99.90
5476;DHT22;2760;50.000;9.194;2023-05-10T00:05:49;16.20;99.90
5476;DHT22;2760;50.000;9.194;2023-05-10T00:08:16;16.00;99.90
5476;DHT22;2760;50.000;9.194;2023-05-10T00:10:43;15.90;99.90
5476;DHT22;2760;50.000;9.194;2023-05-10T00:13:10;17.40;99.90
5476;DHT22;2760;50.000;9.194;2023-05-10T00:15:37;16.00;99.90
5476;DHT22;2760;50.000;9.194;2023-05-10T00:18:06;15.90;99.90
5476;DHT22;2760;50.000;9.194;2023-05-10T00:20:33;15.70;99.90
5476;DHT22;2760;50.000;9.194;2023-05-10T00:23:00;16.60;99.90
5476;DHT22;2760;50.000;9.194;2023-05-10T00:25:27;15.40;99.90
5476;DHT22;2760;50.000;9.194;2023-05-10T00:27:54;15.30;99.90
5476;DHT22;2760;50.000;9.194;2023-05-10T00:30:22;15.40;99.90
5476;DHT22;2760;50.000;9.194;2023-05-10T00:32:50;15.30;99.90
5476;DHT22;2760;50.000;9.194;2023-05-10T00:35:18;16.80;99.90
5476;DHT22;2760;50.000;9.194;2023-05-10T00:37:47;15.50;99.90
5476;DHT22;2760;50.000;9.194;2023-05-10T00:40:15;15.40;99.90
5476;DHT22;2760;50.000;9.194;2023-05-10T00:45:14;15.30;99.90
5476;DHT22;2760;50.000;9.194;2023-05-10T00:47:41;15.20;99.90
5476;DHT22;2760;50.000;9.194;2023-05-10T00:50:09;15.20;99.90
5476;DHT22;2760;50.000;9.194;2023-05-10T00:52:38;15.30;99.90
5476;DHT22;2760;50.000;9.194;2023-05-10T00:55:06;15.40;99.90
5476;DHT22;2760;50.000;9.194;2023-05-10T00:57:33;15.30;99.90
5476;DHT22;2760;50.000;9.194;2023-05-10T01:00:03;15.30;99.90
5476;DHT22;2760;50.000;9.194;2023-05-10T01:02:30;15.40;99.90
5476;DHT22;2760;50.000;9.194;2023-05-10T01:04:57;16.60;99.90
5476;DHT22;2760;50.000;9.194;2023-05-10T01:07:24;15.50;99.90
5476;DHT22;2760;50.000;9.194;2023-05-10T01:09:52;15.30;99.90
5476;DHT22;2760;50.000;9.194;2023-05-10T01:12:19;17.60;99.90
5476;DHT22;2760;50.000;9.194;2023-05-10T01:17:15;15.40;99.90
5476;DHT22;2760;50.000;9.194;2023-05-10T01:19:42;17.20;99.90
5476;DHT22;2760;50.000;9.194;2023-05-10T01:22:28;15.30;99.90
5476;DHT22;2760;50.000;9.194;2023-05-10T01:25:37;15.20;99.90
5476;DHT22;2760;50.000;9.194;2023-05-10T01:28:30;15.00;99.90
5476;DHT22;2760;50.000;9.194;2023-05-10T01:31:21;15.30;99.90
5476;DHT22;2760;50.000;9.194;2023-05-10T01:33:55;15.00;99.90
5476;DHT22;2760;50.000;9.194;2023-05-10T01:36:26;16.00;99.90
5476;DHT22;2760;50.000;9.194;2023-05-10T01:39:01;15.50;99.90
5476;DHT22;2760;50.000;9.194;2023-05-10T01:41:36;15.20;99.90
5476;DHT22;2760;50.000;9.194;2023-05-10T01:44:12;15.10;99.90
5476;DHT22;2760;50.000;9.194;2023-05-10T01:46:50;15.00;99.90
5476;DHT22;2760;50.000;9.194;2023-05-10T01:49:22;14.90;99.90
5476;DHT22;2760;50.000;9.194;2023-05-10T01:51:53;15.10;99.90
5476;DHT22;2760;50.000;9.194;2023-05-10T01:54:22;15.00;99.90
5476;DHT22;2760;50.000;9.194;2023-05-10T01:56:54;15.10;99.90
5476;DHT22;2760;50.000;9.194;2023-05-10T01:59:25;15.00;99.90
5476;DHT22;2760;50.000;9.194;2023-05-10T02:01:56;14.90;99.90
5476;DHT22;2760;50.000;9.194;2023-05-10T02:04:26;16.70;99.90
5476;DHT22;2760;50.000;9.194;2023-05-10T02:06:55;15.00;99.90
5476;DHT22;2760;50.000;9.194;2023-05-10T02:09:25;15.00;99.90
5476;DHT22;2760;50.000;9.194;2023-05-10T02:11:54;15.00;99.90
5476;DHT22;2760;50.000;9.194;2023-05-10T02:14:22;15.00;99.90
5476;DHT22;2760;50.000;9.194;2023-05-10T02:16:52;15.00;99.90
5476;DHT22;2760;50.000;9.194;2023-05-10T02:19:22;14.90;99.90
5476;DHT22;2760;50.000;9.194;2023-05-10T02:21:52;15.00;99.90
5476;DHT22;2760;50.000;9.194;2023-05-10T02:24:19;15.00;99.90
5476;DHT22;2760;50.000;9.194;2023-05-10T02:26:48;15.00;99.90
5476;DHT22;2760;50.000;9.194;2023-05-10T02:29:17;14.90;99.90
5476;DHT22;2760;50.000;9.194;2023-05-10T02:31:47;15.00;99.90
5476;DHT22;2760;50.000;9.194;2023-05-10T02:34:14;16.20;99.90
5476;DHT22;2760;50.000;9.194;2023-05-10T02:36:42;15.10;99.90
5476;DHT22;2760;50.000;9.194;2023-05-10T02:39:11;16.90;99.90
5476;DHT22;2760;50.000;9.194;2023-05-10T02:41:39;15.00;99.90
5476;DHT22;2760;50.000;9.194;2023-05-10T02:44:08;15.00;99.90
5476;DHT22;2760;50.000;9.194;2023-05-10T02:46:36;16.20;99.90
5476;DHT22;2760;50.000;9.194;2023-05-10T02:49:03;15.00;99.90
5476;DHT22;2760;50.000;9.194;2023-05-10T02:51:32;14.90;99.90
5476;DHT22;2760;50.000;9.194;2023-05-10T02:54:10;14.90;99.90
5476;DHT22;2760;50.000;9.194;2023-05-10T02:56:43;14.90;99.90
5476;DHT22;2760;50.000;9.194;2023-05-10T02:59:14;14.80;99.90
5476;DHT22;2760;50.000;9.194;2023-05-10T03:01:41;14.90;99.90
5476;DHT22;2760;50.000;9.194;2023-05-10T03:04:08;15.70;99.90
5476;DHT22;2760;50.000;9.194;2023-05-10T03:06:35;14.70;99.90
5476;DHT22;2760;50.000;9.194;2023-05-10T03:09:03;14.70;99.90
5476;DHT22;2760;50.000;9.194;2023-05-10T03:11:45;14.20;99.90
5476;DHT22;2760;50.000;9.194;2023-05-10T03:14:23;15.00;99.90
5476;DHT22;2760;50.000;9.194;2023-05-10T03:16:58;15.00;99.90
5476;DHT22;2760;50.000;9.194;2023-05-10T03:19:32;16.70;99.90
5476;DHT22;2760;50.000;9.194;2023-05-10T03:22:04;16.60;99.90
5476;DHT22;2760;50.000;9.194;2023-05-10T03:24:36;14.70;99.90
5476;DHT22;2760;50.000;9.194;2023-05-10T03:27:08;14.80;99.90
5476;DHT22;2760;50.000;9.194;2023-05-10T03:29:38;14.70;99.90
5476;DHT22;2760;50.000;9.194;2023-05-10T03:32:06;15.70;99.90
5476;DHT22;2760;50.000;9.194;2023-05-10T03:34:33;15.90;99.90
5476;DHT22;2760;50.000;9.194;2023-05-10T03:37:02;14.60;99.90
5476;DHT22;2760;50.000;9.194;2023-05-10T03:39:31;12.30;99.90
5476;DHT22;2760;50.000;9.194;2023-05-10T03:42:00;14.60;99.90
5476;DHT22;2760;50.000;9.194;2023-05-10T03:44:28;14.60;99.90
5476;DHT22;2760;50.000;9.194;2023-05-10T03:46:55;14.50;99.90
5476;DHT22;2760;50.000;9.194;2023-05-10T03:49:23;16.10;99.90
5476;DHT22;2760;50.000;9.194;2023-05-10T03:51:50;14.50;99.90
5476;DHT22;2760;50.000;9.194;2023-05-10T03:54:17;14.90;99.90
5476;DHT22;2760;50.000;9.194;2023-05-10T03:56:45;15.70;99.90
5476;DHT22;2760;50.000;9.194;2023-05-10T03:59:14;15.90;99.90
5476;DHT22;2760;50.000;9.194;2023-05-10T04:01:43;14.60;99.90
5476;DHT22;2760;50.000;9.194;2023-05-10T04:04:10;14.60;99.90
5476;DHT22;2760;50.000;9.194;2023-05-10T04:06:38;16.50;99.90
5476;DHT22;2760;50.000;9.194;2023-05-10T04:09:05;16.50;99.90
5476;DHT22;2760;50.000;9.194;2023-05-10T04:11:32;14.60;99.90
5476;DHT22;2760;50.000;9.194;2023-05-10T04:13:59;16.70;99.90
5476;DHT22;2760;50.000;9.194;2023-05-10T04:16:26;14.60;99.90
5476;DHT22;2760;50.000;9.194;2023-05-10T04:18:54;14.60;99.90
5476;DHT22;2760;50.000;9.194;2023-05-10T04:21:21;14.60;99.90
5476;DHT22;2760;50.000;9.194;2023-05-10T04:23:48;14.50;99.90
5476;DHT22;2760;50.000;9.194;2023-05-10T04:26:15;14.60;99.90
5476;DHT22;2760;50.000;9.194;2023-05-10T04:28:42;14.70;99.90
5476;DHT22;2760;50.000;9.194;2023-05-10T04:31:10;14.60;99.90
5476;DHT22;2760;50.000;9.194;2023-05-10T04:33:37;14.70;99.90
5476;DHT22;2760;50.000;9.194;2023-05-10T04:36:09;16.50;99.90
5476;DHT22;2760;50.000;9.194;2023-05-10T04:38:36;14.20;99.90
5476;DHT22;2760;50.000;9.194;2023-05-10T04:41:06;14.50;99.90
5476;DHT22;2760;50.000;9.194;2023-05-10T04:43:34;14.40;99.90
5476;DHT22;2760;50.000;9.194;2023-05-10T04:46:01;14.50;99.90
5476;DHT22;2760;50.000;9.194;2023-05-10T04:48:29;14.60;99.90
5476;DHT22;2760;50.000;9.194;2023-05-10T04:50:56;15.10;99.90
5476;DHT22;2760;50.000;9.194;2023-05-10T04:53:24;14.60;99.90
5476;DHT22;2760;50.000;9.194;2023-05-10T04:55:51;14.70;99.90
5476;DHT22;2760;50.000;9.194;2023-05-10T04:58:18;14.70;99.90
5476;DHT22;2760;50.000;9.194;2023-05-10T05:00:45;14.60;99.90
5476;DHT22;2760;50.000;9.194;2023-05-10T05:03:12;14.90;99.90
5476;DHT22;2760;50.000;9.194;2023-05-10T05:05:39;14.80;99.90
5476;DHT22;2760;50.000;9.194;2023-05-10T05:08:06;14.70;99.90
5476;DHT22;2760;50.000;9.194;2023-05-10T05:10:35;14.70;99.90
5476;DHT22;2760;50.000;9.194;2023-05-10T05:13:02;14.90;99.90
5476;DHT22;2760;50.000;9.194;2023-05-10T05:15:29;14.80;99.90
5476;DHT22;2760;50.000;9.194;2023-05-10T05:17:57;16.40;99.90
5476;DHT22;2760;50.000;9.194;2023-05-10T05:20:24;14.90;99.90
5476;DHT22;2760;50.000;9.194;2023-05-10T05:22:51;14.80;99.90
5476;DHT22;2760;50.000;9.194;2023-05-10T05:25:18;14.80;99.90
5476;DHT22;2760;50.000;9.194;2023-05-10T05:27:47;15.60;99.90
5476;DHT22;2760;50.000;9.194;2023-05-10T05:30:16;14.90;99.90
5476;DHT22;2760;50.000;9.194;2023-05-10T05:32:43;14.90;99.90
5476;DHT22;2760;50.000;9.194;2023-05-10T05:35:10;14.80;99.90
5476;DHT22;2760;50.000;9.194;2023-05-10T05:37:37;14.80;99.90
5476;DHT22;2760;50.000;9.194;2023-05-10T05:40:04;14.90;99.90
5476;DHT22;2760;50.000;9.194;2023-05-10T05:42:32;14.90;99.90
5476;DHT22;2760;50.000;9.194;2023-05-10T05:45:01;14.90;99.90
5476;DHT22;2760;50.000;9.194;2023-05-10T05:47:29;15.00;99.90
5476;DHT22;2760;50.000;9.194;2023-05-10T05:49:56;14.90;99.90
5476;DHT22;2760;50.000;9.194;2023-05-10T05:52:23;15.00;99.90
5476;DHT22;2760;50.000;9.194;2023-05-10T05:54:50;15.20;99.90
5476;DHT22;2760;50.000;9.194;2023-05-10T05:57:17;15.20;99.90
5476;DHT22;2760;50.000;9.194;2023-05-10T06:02:13;15.10;99.90
5476;DHT22;2760;50.000;9.194;2023-05-10T06:04:40;15.10;99.90
5476;DHT22;2760;50.000;9.194;2023-05-10T06:07:07;15.00;99.90
5476;DHT22;2760;50.000;9.194;2023-05-10T06:09:34;14.90;99.90
5476;DHT22;2760;50.000;9.194;2023-05-10T06:12:01;15.00;99.90
5476;DHT22;2760;50.000;9.194;2023-05-10T06:14:28;15.00;99.90
5476;DHT22;2760;50.000;9.194;2023-05-10T06:16:55;14.90;99.90
5476;DHT22;2760;50.000;9.194;2023-05-10T06:19:23;14.90;99.90
5476;DHT22;2760;50.000;9.194;2023-05-10T06:21:51;14.90;99.90
5476;DHT22;2760;50.000;9.194;2023-05-10T06:24:18;14.90;99.90
5476;DHT22;2760;50.000;9.194;2023-05-10T06:26:46;15.00;99.90
5476;DHT22;2760;50.000;9.194;2023-05-10T06:29:15;14.90;99.90
5476;DHT22;2760;50.000;9.194;2023-05-10T06:31:42;14.90;99.90
5476;DHT22;2760;50.000;9.194;2023-05-10T06:34:09;15.00;99.90
5476;DHT22;2760;50.000;9.194;2023-05-10T06:36:38;14.90;99.90
5476;DHT22;2760;50.000;9.194;2023-05-10T06:39:05;15.30;99.90
5476;DHT22;2760;50.000;9.194;2023-05-10T06:41:32;14.90;99.90
5476;DHT22;2760;50.000;9.194;2023-05-10T06:43:59;14.90;99.90
5476;DHT22;2760;50.000;9.194;2023-05-10T06:46:26;15.00;99.90
5476;DHT22;2760;50.000;9.194;2023-05-10T06:48:53;15.40;99.90
5476;DHT22;2760;50.000;9.194;2023-05-10T06:51:20;15.10;99.90
5476;DHT22;2760;50.000;9.194;2023-05-10T06:53:49;15.00;99.90
5476;DHT22;2760;50.000;9.194;2023-05-10T06:56:16;15.00;99.90
5476;DHT22;2760;50.000;9.194;2023-05-10T06:58:43;15.00;99.90
5476;DHT22;2760;50.000;9.194;2023-05-10T07:01:10;15.00;99.90
5476;DHT22;2760;50.000;9.194;2023-05-10T07:03:36;16.30;99.90
5476;DHT22;2760;50.000;9.194;2023-05-10T07:06:04;15.00;99.90
5476;DHT22;2760;50.000;9.194;2023-05-10T07:08:33;15.00;99.90
5476;DHT22;2760;50.000;9.194;2023-05-10T07:11:02;15.10;99.90
5476;DHT22;2760;50.000;9.194;2023-05-10T07:13:30;15.20;99.90
5476;DHT22;2760;50.000;9.194;2023-05-10T07:15:59;15.10;99.90
5476;DHT22;2760;50.000;9.194;2023-05-10T07:18:27;15.20;99.90
5476;DHT22;2760;50.000;9.194;2023-05-10T07:20:54;16.90;99.90
5476;DHT22;2760;50.000;9.194;2023-05-10T07:23:21;15.20;99.90
5476;DHT22;2760;50.000;9.194;2023-05-10T07:25:49;15.20;99.90
5476;DHT22;2760;50.000;9.194;2023-05-10T07:28:19;15.20;99.90
5476;DHT22;2760;50.000;9.194;2023-05-10T07:30:46;17.00;99.90
5476;DHT22;2760;50.000;9.194;2023-05-10T07:33:14;16.60;99.90
5476;DHT22;2760;50.000;9.194;2023-05-10T07:35:41;15.30;99.90
5476;DHT22;2760;50.000;9.194;2023-05-10T07:38:08;16.10;99.90
5476;DHT22;2760;50.000;9.194;2023-05-10T07:40:36;15.50;99.90
5476;DHT22;2760;50.000;9.194;2023-05-10T07:43:04;15.30;99.90
5476;DHT22;2760;50.000;9.194;2023-05-10T07:45:33;15.30;99.90
5476;DHT22;2760;50.000;9.194;2023-05-10T07:48:00;15.40;99.90
5476;DHT22;2760;50.000;9.194;2023-05-10T07:50:27;16.60;99.90
5476;DHT22;2760;50.000;9.194;2023-05-10T07:52:54;15.80;99.90
5476;DHT22;2760;50.000;9.194;2023-05-10T07:55:22;16.10;99.90
5476;DHT22;2760;50.000;9.194;2023-05-10T07:57:49;15.30;99.90
5476;DHT22;2760;50.000;9.194;2023-05-10T08:00:18;15.40;99.90
5476;DHT22;2760;50.000;9.194;2023-05-10T08:02:48;15.40;99.90
5476;DHT22;2760;50.000;9.194;2023-05-10T08:05:16;17.30;99.90
5476;DHT22;2760;50.000;9.194;2023-05-10T08:07:44;15.30;99.90
5476;DHT22;2760;50.000;9.194;2023-05-10T08:10:11;15.20;99.90
5476;DHT22;2760;50.000;9.194;2023-05-10T08:12:38;15.10;99.90
5476;DHT22;2760;50.000;9.194;2023-05-10T08:15:06;15.30;99.90
5476;DHT22;2760;50.000;9.194;2023-05-10T08:17:33;15.30;99.90
5476;DHT22;2760;50.000;9.194;2023-05-10T08:20:03;15.40;99.90
5476;DHT22;2760;50.000;9.194;2023-05-10T08:22:30;15.50;99.90
5476;DHT22;2760;50.000;9.194;2023-05-10T08:24:57;15.40;99.90
5476;DHT22;2760;50.000;9.194;2023-05-10T08:27:24;15.20;99.90
5476;DHT22;2760;50.000;9.194;2023-05-10T08:29:51;15.50;99.90
5476;DHT22;2760;50.000;9.194;2023-05-10T08:32:18;15.50;99.90
5476;DHT22;2760;50.000;9.194;2023-05-10T08:34:49;15.50;99.90
5476;DHT22;2760;50.000;9.194;2023-05-10T08:37:18;15.70;99.90
5476;DHT22;2760;50.000;9.194;2023-05-10T08:39:47;15.60;99.90
5476;DHT22;2760;50.000;9.194;2023-05-10T08:42:16;15.70;99.90
5476;DHT22;2760;50.000;9.194;2023-05-10T08:44:47;15.90;99.90
5476;DHT22;2760;50.000;9.194;2023-05-10T08:47:16;15.80;99.90
5476;DHT22;2760;50.000;9.194;2023-05-10T08:49:47;15.90;99.90
5476;DHT22;2760;50.000;9.194;2023-05-10T08:52:18;15.90;99.90
5476;DHT22;2760;50.000;9.194;2023-05-10T08:54:47;15.90;99.90
5476;DHT22;2760;50.000;9.194;2023-05-10T08:57:14;15.90;99.90
5476;DHT22;2760;50.000;9.194;2023-05-10T08:59:41;16.00;99.90
5476;DHT22;2760;50.000;9.194;2023-05-10T09:02:10;17.30;99.90
5476;DHT22;2760;50.000;9.194;2023-05-10T09:04:39;15.90;99.90
5476;DHT22;2760;50.000;9.194;2023-05-10T09:07:10;16.10;99.90
5476;DHT22;2760;50.000;9.194;2023-05-10T09:09:39;16.80;99.90
5476;DHT22;2760;50.000;9.194;2023-05-10T09:12:09;16.50;99.90
5476;DHT22;2760;50.000;9.194;2023-05-10T09:14:38;16.20;99.90
5476;DHT22;2760;50.000;9.194;2023-05-10T09:17:05;16.20;99.90
5476;DHT22;2760;50.000;9.194;2023-05-10T09:19:32;16.50;99.90
5476;DHT22;2760;50.000;9.194;2023-05-10T09:21:59;16.60;99.90
5476;DHT22;2760;50.000;9.194;2023-05-10T09:24:29;16.60;99.90
5476;DHT22;2760;50.000;9.194;2023-05-10T09:27:02;16.90;99.90
5476;DHT22;2760;50.000;9.194;2023-05-10T09:29:39;17.30;99.90
5476;DHT22;2760;50.000;9.194;2023-05-10T09:32:06;17.60;99.90
5476;DHT22;2760;50.000;9.194;2023-05-10T09:34:33;17.80;99.90
5476;DHT22;2760;50.000;9.194;2023-05-10T09:37:03;17.60;99.90
5476;DHT22;2760;50.000;9.194;2023-05-10T09:39:31;17.70;99.90
5476;DHT22;2760;50.000;9.194;2023-05-10T09:41:59;17.70;99.90
5476;DHT22;2760;50.000;9.194;2023-05-10T09:44:28;17.70;99.90
5476;DHT22;2760;50.000;9.194;2023-05-10T09:46:55;17.70;99.90
5476;DHT22;2760;50.000;9.194;2023-05-10T09:49:22;17.80;99.90
5476;DHT22;2760;50.000;9.194;2023-05-10T09:52:04;17.90;99.90
5476;DHT22;2760;50.000;9.194;2023-05-10T09:54:33;18.10;99.90
5476;DHT22;2760;50.000;9.194;2023-05-10T09:57:00;18.20;99.90
5476;DHT22;2760;50.000;9.194;2023-05-10T09:59:33;18.30;99.90
5476;DHT22;2760;50.000;9.194;2023-05-10T10:02:00;18.10;99.90
5476;DHT22;2760;50.000;9.194;2023-05-10T10:04:28;17.60;99.90
5476;DHT22;2760;50.000;9.194;2023-05-10T10:07:01;17.70;99.90
5476;DHT22;2760;50.000;9.194;2023-05-10T10:09:28;17.40;99.90
5476;DHT22;2760;50.000;9.194;2023-05-10T10:11:55;17.50;99.90
5476;DHT22;2760;50.000;9.194;2023-05-10T10:14:22;17.40;99.90
5476;DHT22;2760;50.000;9.194;2023-05-10T10:16:52;17.30;99.90
5476;DHT22;2760;50.000;9.194;2023-05-10T10:19:21;17.20;99.90
5476;DHT22;2760;50.000;9.194;2023-05-10T10:21:49;17.30;99.90
5476;DHT22;2760;50.000;9.194;2023-05-10T10:24:18;17.20;99.90
5476;DHT22;2760;50.000;9.194;2023-05-10T10:26:46;17.20;99.90
5476;DHT22;2760;50.000;9.194;2023-05-10T10:29:21;17.10;99.90
5476;DHT22;2760;50.000;9.194;2023-05-10T10:31:57;17.40;99.90
5476;DHT22;2760;50.000;9.194;2023-05-10T10:34:31;17.40;99.90
5476;DHT22;2760;50.000;9.194;2023-05-10T10:37:04;17.60;99.90
5476;DHT22;2760;50.000;9.194;2023-05-10T10:39:32;17.90;99.90
5476;DHT22;2760;50.000;9.194;2023-05-10T10:42:03;17.80;99.90
5476;DHT22;2760;50.000;9.194;2023-05-10T10:44:38;17.60;99.90
5476;DHT22;2760;50.000;9.194;2023-05-10T10:47:21;17.90;99.90
5476;DHT22;2760;50.000;9.194;2023-05-10T10:50:03;18.10;99.90
5476;DHT22;2760;50.000;9.194;2023-05-10T10:52:32;18.10;99.90
5476;DHT22;2760;50.000;9.194;2023-05-10T10:55:02;20.30;99.90
5476;DHT22;2760;50.000;9.194;2023-05-10T10:57:43;18.50;99.90
5476;DHT22;2760;50.000;9.194;2023-05-10T11:00:25;16.40;99.90
5476;DHT22;2760;50.000;9.194;2023-05-10T11:02:58;18.40;99.90
5476;DHT22;2760;50.000;9.194;2023-05-10T11:05:37;18.40;99.90
5476;DHT22;2760;50.000;9.194;2023-05-10T11:08:16;18.20;99.90
5476;DHT22;2760;50.000;9.194;2023-05-10T11:11:05;17.60;99.90
5476;DHT22;2760;50.000;9.194;2023-05-10T11:13:40;17.60;99.90
5476;DHT22;2760;50.000;9.194;2023-05-10T11:16:13;17.50;99.90
5476;DHT22;2760;50.000;9.194;2023-05-10T11:18:59;17.50;99.90
5476;DHT22;2760;50.000;9.194;2023-05-10T11:21:27;17.50;99.90
5476;DHT22;2760;50.000;9.194;2023-05-10T11:23:57;17.50;99.90
5476;DHT22;2760;50.000;9.194;2023-05-10T11:26:24;15.30;99.90
5476;DHT22;2760;50.000;9.194;2023-05-10T11:28:53;17.40;99.90
5476;DHT22;2760;50.000;9.194;2023-05-10T11:31:26;17.30;99.90
5476;DHT22;2760;50.000;9.194;2023-05-10T11:33:55;17.50;99.90
5476;DHT22;2760;50.000;9.194;2023-05-10T11:36:26;17.30;99.90
5476;DHT22;2760;50.000;9.194;2023-05-10T11:38:56;17.30;99.90
5476;DHT22;2760;50.000;9.194;2023-05-10T11:41:25;17.30;99.90
5476;DHT22;2760;50.000;9.194;2023-05-10T11:43:54;17.20;99.90
5476;DHT22;2760;50.000;9.194;2023-05-10T11:46:23;17.20;99.90
5476;DHT22;2760;50.000;9.194;2023-05-10T11:48:53;17.10;99.90
5476;DHT22;2760;50.000;9.194;2023-05-10T11:51:25;17.00;99.90
5476;DHT22;2760;50.000;9.194;2023-05-10T11:53:54;17.00;99.90
5476;DHT22;2760;50.000;9.194;2023-05-10T11:56:22;17.10;99.90
5476;DHT22;2760;50.000;9.194;2023-05-10T11:58:56;17.00;99.90
5476;DHT22;2760;50.000;9.194;2023-05-10T12:01:24;17.20;99.90
5476;DHT22;2760;50.000;9.194;2023-05-10T12:03:53;17.30;99.90
5476;DHT22;2760;50.000;9.194;2023-05-10T12:06:21;17.20;99.90
5476;DHT22;2760;50.000;9.194;2023-05-10T12:08:53;17.40;99.90
5476;DHT22;2760;50.000;9.194;2023-05-10T12:11:24;17.50;99.90
5476;DHT22;2760;50.000;9.194;2023-05-10T12:13:54;17.60;99.90
5476;DHT22;2760;50.000;9.194;2023-05-10T12:16:28;17.50;99.90
5476;DHT22;2760;50.000;9.194;2023-05-10T12:18:57;17.50;99.90
5476;DHT22;2760;50.000;9.194;2023-05-10T12:21:25;17.50;99.90
5476;DHT22;2760;50.000;9.194;2023-05-10T12:23:59;17.30;99.90
5476;DHT22;2760;50.000;9.194;2023-05-10T12:26:28;16.80;99.90
5476;DHT22;2760;50.000;9.194;2023-05-10T12:29:01;16.70;99.90
5476;DHT22;2760;50.000;9.194;2023-05-10T12:31:50;16.70;99.90
5476;DHT22;2760;50.000;9.194;2023-05-10T12:34:23;16.80;99.90
5476;DHT22;2760;50.000;9.194;2023-05-10T12:36:52;16.90;99.90
5476;DHT22;2760;50.000;9.194;2023-05-10T12:39:23;17.00;99.90
5476;DHT22;2760;50.000;9.194;2023-05-10T12:41:53;17.00;99.90
5476;DHT22;2760;50.000;9.194;2023-05-10T12:44:23;16.90;99.90
5476;DHT22;2760;50.000;9.194;2023-05-10T12:46:50;17.10;99.90
5476;DHT22;2760;50.000;9.194;2023-05-10T12:49:17;17.30;99.90
5476;DHT22;2760;50.000;9.194;2023-05-10T12:51:45;17.50;99.90
5476;DHT22;2760;50.000;9.194;2023-05-10T12:54:12;17.60;99.90
5476;DHT22;2760;50.000;9.194;2023-05-10T12:56:43;17.70;99.90
5476;DHT22;2760;50.000;9.194;2023-05-10T12:59:10;17.80;99.90
5476;DHT22;2760;50.000;9.194;2023-05-10T13:01:41;17.60;99.90
5476;DHT22;2760;50.000;9.194;2023-05-10T13:04:09;17.90;99.90
5476;DHT22;2760;50.000;9.194;2023-05-10T13:06:39;18.20;99.90
5476;DHT22;2760;50.000;9.194;2023-05-10T13:09:06;18.40;99.90
5476;DHT22;2760;50.000;9.194;2023-05-10T13:11:33;18.70;99.90
5476;DHT22;2760;50.000;9.194;2023-05-10T13:14:02;18.80;99.90
5476;DHT22;2760;50.000;9.194;2023-05-10T13:16:30;18.80;99.90
5476;DHT22;2760;50.000;9.194;2023-05-10T13:19:05;19.20;99.90
5476;DHT22;2760;50.000;9.194;2023-05-10T13:21:32;19.50;99.90
5476;DHT22;2760;50.000;9.194;2023-05-10T13:23:59;19.40;99.90
5476;DHT22;2760;50.000;9.194;2023-05-10T13:26:29;19.20;99.90
5476;DHT22;2760;50.000;9.194;2023-05-10T13:28:56;19.10;99.90
5476;DHT22;2760;50.000;9.194;2023-05-10T13:34:38;19.30;99.90
5476;DHT22;2760;50.000;9.194;2023-05-10T13:37:05;19.50;99.90
5476;DHT22;2760;50.000;9.194;2023-05-10T13:39:36;19.80;99.90
5476;DHT22;2760;50.000;9.194;2023-05-10T13:42:05;19.70;99.90
5476;DHT22;2760;50.000;9.194;2023-05-10T13:44:37;19.60;99.90
5476;DHT22;2760;50.000;9.194;2023-05-10T13:47:06;19.60;99.90
5476;DHT22;2760;50.000;9.194;2023-05-10T13:49:37;19.40;99.90
5476;DHT22;2760;50.000;9.194;2023-05-10T13:52:05;19.30;99.90
5476;DHT22;2760;50.000;9.194;2023-05-10T13:54:33;19.40;99.90
5476;DHT22;2760;50.000;9.194;2023-05-10T13:57:02;19.20;99.90
5476;DHT22;2760;50.000;9.194;2023-05-10T13:59:33;19.20;99.90
5476;DHT22;2760;50.000;9.194;2023-05-10T14:02:00;19.30;99.90
5476;DHT22;2760;50.000;9.194;2023-05-10T14:04:29;19.10;99.90
5476;DHT22;2760;50.000;9.194;2023-05-10T14:06:58;19.10;99.90
5476;DHT22;2760;50.000;9.194;2023-05-10T14:09:25;19.00;99.90
5476;DHT22;2760;50.000;9.194;2023-05-10T14:11:52;19.20;99.90
5476;DHT22;2760;50.000;9.194;2023-05-10T14:14:19;19.30;99.90
5476;DHT22;2760;50.000;9.194;2023-05-10T14:16:46;19.30;99.90
5476;DHT22;2760;50.000;9.194;2023-05-10T14:19:13;19.50;99.90
5476;DHT22;2760;50.000;9.194;2023-05-10T14:21:40;18.70;99.90
5476;DHT22;2760;50.000;9.194;2023-05-10T14:24:10;19.90;99.90
5476;DHT22;2760;50.000;9.194;2023-05-10T14:26:37;19.40;99.80
5476;DHT22;2760;50.000;9.194;2023-05-10T14:29:04;19.60;99.90
5476;DHT22;2760;50.000;9.194;2023-05-10T14:31:31;19.80;99.90
5476;DHT22;2760;50.000;9.194;2023-05-10T14:33:58;19.80;99.50
5476;DHT22;2760;50.000;9.194;2023-05-10T14:36:25;19.90;98.90
5476;DHT22;2760;50.000;9.194;2023-05-10T14:38:54;19.90;99.30
5476;DHT22;2760;50.000;9.194;2023-05-10T14:41:23;19.80;99.10
5476;DHT22;2760;50.000;9.194;2023-05-10T14:43:50;19.70;98.30
5476;DHT22;2760;50.000;9.194;2023-05-10T14:46:17;19.70;98.60
5476;DHT22;2760;50.000;9.194;2023-05-10T14:48:44;19.40;99.20
5476;DHT22;2760;50.000;9.194;2023-05-10T14:51:11;19.40;99.30
5476;DHT22;2760;50.000;9.194;2023-05-10T14:53:39;19.30;99.70
5476;DHT22;2760;50.000;9.194;2023-05-10T14:56:06;19.00;99.80
5476;DHT22;2760;50.000;9.194;2023-05-10T14:58:35;19.10;99.90
5476;DHT22;2760;50.000;9.194;2023-05-10T15:01:02;19.20;99.90
5476;DHT22;2760;50.000;9.194;2023-05-10T15:03:29;19.20;99.80
5476;DHT22;2760;50.000;9.194;2023-05-10T15:05:56;19.10;99.90
5476;DHT22;2760;50.000;9.194;2023-05-10T15:08:23;19.10;99.90
5476;DHT22;2760;50.000;9.194;2023-05-10T15:10:50;18.90;99.90
5476;DHT22;2760;50.000;9.194;2023-05-10T15:13:18;19.20;99.90
5476;DHT22;2760;50.000;9.194;2023-05-10T15:15:47;19.20;99.90
5476;DHT22;2760;50.000;9.194;2023-05-10T15:18:14;19.20;99.90
5476;DHT22;2760;50.000;9.194;2023-05-10T15:20:41;19.50;99.30
5476;DHT22;2760;50.000;9.194;2023-05-10T15:23:08;17.50;98.40
5476;DHT22;2760;50.000;9.194;2023-05-10T15:25:35;19.30;99.60
5476;DHT22;2760;50.000;9.194;2023-05-10T15:28:03;19.20;99.80
5476;DHT22;2760;50.000;9.194;2023-05-10T15:30:30;19.20;99.20
5476;DHT22;2760;50.000;9.194;2023-05-10T15:33:08;19.40;99.20
5476;DHT22;2760;50.000;9.194;2023-05-10T15:35:50;19.30;99.70
5476;DHT22;2760;50.000;9.194;2023-05-10T15:38:19;19.10;99.60
5476;DHT22;2760;50.000;9.194;2023-05-10T15:40:46;19.20;99.60
5476;DHT22;2760;50.000;9.194;2023-05-10T15:43:13;19.00;99.80
5476;DHT22;2760;50.000;9.194;2023-05-10T15:45:40;19.20;99.90
5476;DHT22;2760;50.000;9.194;2023-05-10T15:48:09;19.20;99.80
5476;DHT22;2760;50.000;9.194;2023-05-10T15:50:36;19.50;99.90
5476;DHT22;2760;50.000;9.194;2023-05-10T15:53:03;19.40;99.50
5476;DHT22;2760;50.000;9.194;2023-05-10T15:55:30;19.50;98.30
5476;DHT22;2760;50.000;9.194;2023-05-10T15:57:57;19.40;98.40
5476;DHT22;2760;50.000;9.194;2023-05-10T16:00:26;19.20;97.80
5476;DHT22;2760;50.000;9.194;2023-05-10T16:02:53;19.30;98.50
5476;DHT22;2760;50.000;9.194;2023-05-10T16:05:22;19.20;97.90
5476;DHT22;2760;50.000;9.194;2023-05-10T16:07:49;19.10;97.90
5476;DHT22;2760;50.000;9.194;2023-05-10T16:10:17;19.10;97.90
5476;DHT22;2760;50.000;9.194;2023-05-10T16:12:44;19.20;98.00
5476;DHT22;2760;50.000;9.194;2023-05-10T16:15:12;19.10;98.50
5476;DHT22;2760;50.000;9.194;2023-05-10T16:17:40;19.00;99.00
5476;DHT22;2760;50.000;9.194;2023-05-10T16:20:08;18.90;98.60
5476;DHT22;2760;50.000;9.194;2023-05-10T16:22:37;18.90;98.70
5476;DHT22;2760;50.000;9.194;2023-05-10T16:25:05;19.00;98.80